ZYTX/SHE METAR and TAF weather

Enter ICAO airport designator
Station Type Date Time Source
ZYTX METAR 2019/12/07 15:00 UTC NOAA

ZYTX 071500Z 21001MPS CAVOK M12/M17 Q1030 NOSIG


Station Type Date Time Source
ZYTX Decoded METAR 2019/12/07 15:00 UTC NOAA

Shenyang / Taokian, China (ZYTX) 41-48N 123-24E
Dec 07, 2019 - 10:00 AM EST / 2019.12.07 1500 UTC
Wind: from the SSW (210 degrees) at 2 MPH (2 KT):0
Visibility: greater than 7 mile(s):0
Temperature: 10 F (-12 C)
Dew Point: 1 F (-17 C)
Relative Humidity: 66%
Pressure (altimeter): 30.42 in. Hg (1030 hPa)
ob: ZYTX 071500Z 21001MPS CAVOK M12/M17 Q1030 NOSIG
cycle: 15

Station Type Date Time Source
ZYTX TAF 2019/12/07 12:03 UTC NOAA

TAF ZYTX 070812Z 0712/0812 17004MPS CAVOK TX04/0806Z TNM12/21Z

Example: see airport list